createdAt,value
2022-10-14T00:01:37.728Z,73.77
2022-10-14T00:04:10.452Z,72.79
2022-10-14T00:06:38.930Z,72.66
2022-10-14T00:09:09.830Z,72.61
2022-10-14T00:11:38.628Z,72.78
2022-10-14T00:14:14.299Z,72.29
2022-10-14T00:16:45.816Z,71.90
2022-10-14T00:19:15.903Z,71.37
2022-10-14T00:21:45.588Z,72.13
2022-10-14T00:24:17.224Z,71.58
2022-10-14T00:26:46.315Z,70.55
2022-10-14T00:29:20.779Z,70.16
2022-10-14T00:31:49.356Z,70.21
2022-10-14T00:34:18.116Z,68.77
2022-10-14T00:36:47.396Z,67.35
2022-10-14T00:39:20.205Z,68.50
2022-10-14T00:41:48.846Z,69.25
2022-10-14T00:44:20.197Z,68.60
2022-10-14T00:46:50.261Z,67.69
2022-10-14T00:49:43.955Z,68.01
2022-10-14T00:52:18.593Z,67.22
2022-10-14T00:54:53.771Z,67.60
2022-10-14T00:57:24.011Z,67.59
2022-10-14T00:59:58.132Z,67.71
2022-10-14T01:02:26.681Z,67.51
2022-10-14T01:04:55.355Z,68.08
2022-10-14T01:07:41.294Z,68.13
2022-10-14T01:10:14.109Z,67.14
2022-10-14T01:13:01.094Z,66.81
2022-10-14T01:15:39.235Z,66.97
2022-10-14T01:18:35.484Z,67.56
2022-10-14T01:21:16.217Z,67.81
2022-10-14T01:23:44.688Z,67.84
2022-10-14T01:26:29.623Z,68.09
2022-10-14T01:29:27.610Z,67.99
2022-10-14T01:32:09.423Z,68.13
2022-10-14T01:34:45.254Z,68.24
2022-10-14T01:37:19.777Z,67.72
2022-10-14T01:39:53.768Z,67.98
2022-10-14T01:42:25.742Z,67.75
2022-10-14T01:45:07.628Z,67.50
2022-10-14T01:47:39.983Z,67.87
2022-10-14T01:50:13.825Z,67.53
2022-10-14T01:53:06.442Z,68.10
2022-10-14T01:55:43.481Z,67.73
2022-10-14T01:58:14.929Z,67.51
2022-10-14T02:00:43.898Z,66.90
2022-10-14T02:03:13.699Z,66.96
2022-10-14T02:05:50.484Z,67.42
2022-10-14T02:08:57.541Z,67.01
2022-10-14T02:11:26.920Z,67.33
2022-10-14T02:14:30.978Z,67.42
2022-10-14T02:17:32.899Z,67.83
2022-10-14T02:20:08.779Z,68.07
2022-10-14T02:22:45.661Z,68.00
2022-10-14T02:25:26.939Z,68.21
2022-10-14T02:27:55.844Z,68.39
2022-10-14T02:30:25.990Z,67.98
2022-10-14T02:33:01.020Z,68.12
2022-10-14T02:35:31.788Z,68.33
2022-10-14T02:38:01.821Z,68.04
2022-10-14T02:40:37.205Z,67.92
2022-10-14T02:43:08.255Z,67.94
2022-10-14T02:45:41.578Z,68.14
2022-10-14T02:48:11.820Z,67.97
2022-10-14T02:50:42.387Z,67.82
2022-10-14T02:53:14.810Z,68.09
2022-10-14T02:55:46.548Z,68.22
2022-10-14T02:58:15.255Z,68.08
2022-10-14T03:00:43.868Z,67.87
2022-10-14T03:03:13.260Z,68.04
2022-10-14T03:05:42.755Z,68.39
2022-10-14T03:08:14.474Z,68.15
2022-10-14T03:10:47.038Z,68.29
2022-10-14T03:13:16.755Z,68.49
2022-10-14T03:15:51.029Z,68.40
2022-10-14T03:18:20.461Z,68.24
2022-10-14T03:20:50.226Z,67.98
2022-10-14T03:23:21.570Z,67.84
2022-10-14T03:25:51.422Z,67.73
2022-10-14T03:28:27.515Z,67.84
2022-10-14T03:31:02.752Z,67.62
2022-10-14T03:33:49.346Z,67.69
2022-10-14T03:36:19.809Z,67.90
2022-10-14T03:38:52.358Z,67.67
2022-10-14T03:41:31.882Z,67.71
2022-10-14T03:44:00.482Z,67.89
2022-10-14T03:46:29.544Z,67.75
2022-10-14T03:48:58.432Z,67.82
2022-10-14T03:51:26.938Z,67.93
2022-10-14T03:54:03.194Z,68.26
2022-10-14T03:56:31.897Z,68.12
2022-10-14T03:59:01.803Z,68.25
2022-10-14T04:01:30.259Z,68.54
2022-10-14T04:04:11.753Z,68.54
2022-10-14T04:06:40.396Z,68.64
2022-10-14T04:09:09.073Z,68.87
2022-10-14T04:11:40.186Z,69.15
2022-10-14T04:14:11.487Z,69.40
2022-10-14T04:16:49.686Z,68.98
2022-10-14T04:19:19.669Z,69.13
2022-10-14T04:21:48.424Z,69.37
2022-10-14T04:24:17.789Z,69.40
2022-10-14T04:26:52.883Z,69.50
2022-10-14T04:29:41.739Z,69.64
2022-10-14T04:32:15.317Z,69.59
2022-10-14T04:34:43.851Z,69.85
2022-10-14T04:37:13.714Z,69.78
2022-10-14T04:39:49.877Z,69.64
2022-10-14T04:42:18.808Z,69.64
2022-10-14T04:44:49.451Z,69.53
2022-10-14T04:47:20.369Z,69.52
2022-10-14T04:49:51.461Z,69.39
2022-10-14T04:52:22.253Z,69.11
2022-10-14T04:54:58.648Z,68.89
2022-10-14T04:57:40.562Z,68.93
2022-10-14T05:00:12.979Z,69.27
2022-10-14T05:02:49.271Z,69.39
2022-10-14T05:05:18.150Z,69.19
2022-10-14T05:07:48.730Z,69.12
2022-10-14T05:10:23.142Z,68.84
2022-10-14T05:12:52.216Z,68.71
2022-10-14T05:15:20.905Z,68.74
2022-10-14T05:17:58.910Z,68.71
2022-10-14T05:20:38.798Z,68.56
2022-10-14T05:23:07.333Z,68.61
2022-10-14T05:25:35.716Z,68.55
2022-10-14T05:28:04.549Z,68.21
2022-10-14T05:30:34.818Z,68.12
2022-10-14T05:33:04.529Z,67.98
2022-10-14T05:35:56.932Z,67.98
2022-10-14T05:38:21.730Z,67.78
2022-10-14T05:40:57.992Z,67.45
2022-10-14T05:43:32.043Z,67.52
2022-10-14T05:46:04.346Z,67.38
2022-10-14T05:48:37.081Z,67.27
2022-10-14T05:51:05.896Z,67.11
2022-10-14T05:53:39.340Z,66.63
2022-10-14T05:56:11.101Z,66.36
2022-10-14T05:58:40.932Z,65.84
2022-10-14T06:01:12.099Z,65.82
2022-10-14T06:03:42.606Z,65.28
2022-10-14T06:06:15.645Z,64.87
2022-10-14T06:08:45.181Z,64.92
2022-10-14T06:11:13.775Z,64.74
2022-10-14T06:13:42.367Z,64.52
2022-10-14T06:16:11.789Z,64.50
2022-10-14T06:18:40.584Z,63.97
2022-10-14T06:21:10.537Z,63.31
2022-10-14T06:23:39.023Z,62.76
2022-10-14T06:26:09.950Z,62.79
2022-10-14T06:28:39.094Z,62.16
2022-10-14T06:31:07.745Z,61.58
2022-10-14T06:33:36.238Z,62.03
2022-10-14T06:36:05.907Z,62.04
2022-10-14T06:38:34.477Z,61.49
2022-10-14T06:41:03.066Z,61.44
2022-10-14T06:43:31.468Z,60.99
2022-10-14T06:46:00.098Z,60.72
2022-10-14T06:48:28.465Z,61.15
2022-10-14T06:51:00.240Z,60.80
2022-10-14T06:53:29.600Z,60.67
2022-10-14T06:56:04.460Z,60.50
2022-10-14T06:58:33.697Z,60.38
2022-10-14T07:01:07.131Z,60.26
2022-10-14T07:03:39.582Z,60.39
2022-10-14T07:06:09.168Z,60.88
2022-10-14T07:08:37.748Z,60.82
2022-10-14T07:11:06.457Z,60.91
2022-10-14T07:13:34.957Z,60.78
2022-10-14T07:16:03.772Z,61.08
2022-10-14T07:18:32.438Z,61.05
2022-10-14T07:21:07.749Z,60.90
2022-10-14T07:23:36.281Z,60.72
2022-10-14T07:26:04.826Z,60.99
2022-10-14T07:28:34.401Z,61.06
2022-10-14T07:31:10.813Z,60.94
2022-10-14T07:33:40.679Z,61.06
2022-10-14T07:36:16.151Z,60.53
2022-10-14T07:38:48.397Z,60.50
2022-10-14T07:41:23.495Z,60.98
2022-10-14T07:43:55.007Z,59.97
2022-10-14T07:46:29.844Z,60.23
2022-10-14T07:49:02.138Z,59.73
2022-10-14T07:51:30.965Z,59.72
2022-10-14T07:54:01.159Z,59.29
2022-10-14T07:56:29.600Z,59.02
2022-10-14T07:58:59.053Z,58.58
2022-10-14T08:01:27.696Z,58.76
2022-10-14T08:03:56.493Z,58.16
2022-10-14T08:06:25.209Z,57.49
2022-10-14T08:08:54.127Z,56.42
2022-10-14T08:11:26.328Z,56.16
2022-10-14T08:13:55.563Z,55.56
2022-10-14T08:16:26.796Z,55.66
2022-10-14T08:19:01.406Z,56.13
2022-10-14T08:21:29.904Z,56.29
2022-10-14T08:23:59.077Z,55.82
2022-10-14T08:26:29.466Z,55.18
2022-10-14T08:28:59.626Z,55.45
2022-10-14T08:31:28.420Z,54.74
2022-10-14T08:33:56.992Z,54.32
2022-10-14T08:36:25.839Z,54.37
2022-10-14T08:38:54.889Z,54.51
2022-10-14T08:41:32.470Z,53.84
2022-10-14T08:44:12.863Z,53.98
2022-10-14T08:46:52.232Z,53.79
2022-10-14T08:49:32.912Z,54.12
2022-10-14T08:52:08.632Z,53.18
2022-10-14T08:54:44.570Z,53.12
2022-10-14T08:57:19.472Z,52.76
2022-10-14T08:59:49.115Z,52.70
2022-10-14T09:02:28.555Z,52.49
2022-10-14T09:04:59.940Z,52.29
2022-10-14T09:07:31.033Z,52.45
2022-10-14T09:10:06.246Z,51.86
2022-10-14T09:12:36.267Z,51.96
2022-10-14T09:15:16.722Z,51.43
2022-10-14T09:18:10.216Z,51.69
2022-10-14T09:20:39.213Z,52.20
2022-10-14T09:23:18.368Z,51.06
2022-10-14T09:25:49.741Z,50.87
2022-10-14T09:28:19.733Z,50.67
2022-10-14T09:30:48.199Z,50.62
2022-10-14T09:33:20.999Z,50.21
2022-10-14T09:35:49.813Z,49.96
2022-10-14T09:38:19.274Z,50.01
2022-10-14T09:40:58.701Z,50.02
2022-10-14T09:43:27.307Z,49.99
2022-10-14T09:46:03.039Z,49.71
2022-10-14T09:48:34.475Z,49.99
2022-10-14T09:51:09.140Z,50.46
2022-10-14T09:53:49.403Z,50.83
2022-10-14T09:56:30.332Z,49.80
2022-10-14T09:58:59.116Z,49.44
2022-10-14T10:01:39.330Z,49.62
2022-10-14T10:04:33.006Z,49.63
2022-10-14T10:07:06.069Z,49.45
2022-10-14T10:09:35.065Z,49.73
2022-10-14T10:12:34.062Z,49.67
2022-10-14T10:15:06.467Z,49.84
2022-10-14T10:17:40.748Z,50.31
2022-10-14T10:20:33.799Z,50.68
2022-10-14T10:23:29.175Z,51.09
2022-10-14T10:26:15.976Z,51.22
2022-10-14T10:28:46.615Z,51.27
2022-10-14T10:31:43.173Z,51.44
2022-10-14T10:34:38.829Z,51.90
2022-10-14T10:37:25.434Z,51.64
2022-10-14T10:40:18.032Z,51.77
2022-10-14T10:43:01.498Z,52.11
2022-10-14T10:45:37.181Z,52.24
2022-10-14T10:48:14.387Z,52.12
2022-10-14T10:51:04.550Z,52.07
2022-10-14T10:53:47.073Z,52.02
2022-10-14T10:56:52.687Z,51.66
2022-10-14T10:59:39.304Z,51.54
2022-10-14T11:02:14.250Z,51.88
2022-10-14T11:04:57.882Z,51.81
2022-10-14T11:08:22.879Z,51.67
2022-10-14T11:11:36.071Z,51.44
2022-10-14T11:14:16.350Z,51.71
2022-10-14T11:16:48.093Z,51.52
2022-10-14T11:19:24.427Z,51.50
2022-10-14T11:22:14.249Z,51.33
2022-10-14T11:24:43.735Z,51.06
2022-10-14T11:27:12.301Z,51.54
2022-10-14T11:30:07.146Z,51.54
2022-10-14T11:33:17.138Z,51.31
2022-10-14T11:35:56.117Z,51.28
2022-10-14T11:38:43.398Z,50.63
2022-10-14T11:41:33.709Z,50.17
2022-10-14T11:44:18.231Z,50.19
2022-10-14T11:46:53.615Z,50.47
2022-10-14T11:49:29.657Z,49.45
2022-10-14T11:52:07.992Z,49.23
2022-10-14T11:54:54.929Z,49.09
2022-10-14T11:57:26.201Z,49.45
2022-10-14T12:00:21.385Z,49.48
2022-10-14T12:03:11.471Z,49.58
2022-10-14T12:06:04.846Z,48.97
2022-10-14T12:08:58.061Z,49.08
2022-10-14T12:11:49.539Z,48.17
2022-10-14T12:14:33.656Z,47.49
2022-10-14T12:17:18.439Z,48.07
2022-10-14T12:19:48.034Z,47.60
2022-10-14T12:22:16.707Z,47.35
2022-10-14T12:24:54.511Z,47.83
2022-10-14T12:27:26.321Z,47.18
2022-10-14T12:29:59.182Z,46.95
2022-10-14T12:32:30.912Z,46.91
2022-10-14T12:35:04.429Z,46.62
2022-10-14T12:37:43.284Z,46.39
2022-10-14T12:40:14.806Z,47.01
2022-10-14T12:43:01.729Z,46.91
2022-10-14T12:45:35.012Z,46.50
2022-10-14T12:48:22.543Z,46.77
2022-10-14T12:51:07.260Z,45.72
2022-10-14T12:53:39.744Z,45.97
2022-10-14T12:56:09.393Z,46.11
2022-10-14T12:58:42.887Z,46.25
2022-10-14T13:01:21.759Z,46.41
2022-10-14T13:03:57.996Z,47.18
2022-10-14T13:06:33.933Z,47.33
2022-10-14T13:09:17.245Z,47.49
2022-10-14T13:12:05.541Z,47.74
2022-10-14T13:14:58.688Z,47.90
2022-10-14T13:17:42.676Z,47.96
2022-10-14T13:20:36.209Z,47.79
2022-10-14T13:23:23.948Z,47.86
2022-10-14T13:25:53.318Z,47.94
2022-10-14T13:28:35.919Z,47.54
2022-10-14T13:31:23.167Z,47.18
2022-10-14T13:34:11.542Z,47.24
2022-10-14T13:37:03.779Z,47.36
2022-10-14T13:39:34.817Z,46.74
2022-10-14T13:42:03.753Z,46.77
2022-10-14T13:44:32.660Z,46.62
2022-10-14T13:47:03.189Z,46.14
2022-10-14T13:49:38.036Z,46.47
2022-10-14T13:52:18.789Z,46.63
2022-10-14T13:54:47.484Z,46.51
2022-10-14T13:57:47.877Z,45.83
2022-10-14T14:00:46.116Z,46.10
2022-10-14T14:03:29.138Z,45.70
2022-10-14T14:05:59.592Z,45.49
2022-10-14T14:08:40.815Z,45.38
2022-10-14T14:11:19.217Z,45.62
2022-10-14T14:14:02.915Z,44.88
2022-10-14T14:16:34.298Z,45.05
2022-10-14T14:19:09.197Z,45.03
2022-10-14T14:21:39.054Z,45.26
2022-10-14T14:24:17.955Z,45.80
2022-10-14T14:26:56.540Z,45.95
2022-10-14T14:29:29.004Z,45.66
2022-10-14T14:32:06.755Z,45.62
2022-10-14T14:34:38.902Z,45.76
2022-10-14T14:40:06.205Z,45.50
2022-10-14T14:42:40.333Z,45.62
2022-10-14T14:45:56.328Z,45.31
2022-10-14T14:48:25.301Z,45.39
2022-10-14T14:50:54.390Z,45.60
2022-10-14T14:53:29.722Z,46.10
2022-10-14T14:55:58.429Z,46.20
2022-10-14T14:58:49.425Z,46.35
2022-10-14T15:01:27.250Z,46.51
2022-10-14T15:04:12.775Z,46.57
2022-10-14T15:07:21.244Z,46.43
2022-10-14T15:09:57.211Z,46.56
2022-10-14T15:12:34.365Z,46.53
2022-10-14T15:15:06.992Z,47.16
2022-10-14T15:17:45.102Z,47.35
2022-10-14T15:20:43.486Z,47.34
2022-10-14T15:23:41.541Z,47.51
2022-10-14T15:26:28.341Z,47.62
2022-10-14T15:29:08.997Z,48.11
2022-10-14T15:31:39.429Z,48.43
2022-10-14T15:34:17.803Z,48.56
2022-10-14T15:36:50.056Z,48.65
2022-10-14T15:39:19.076Z,48.74
2022-10-14T15:41:48.118Z,48.77
2022-10-14T15:44:16.618Z,48.95
2022-10-14T15:47:04.943Z,49.22
2022-10-14T15:49:39.252Z,49.39
2022-10-14T15:52:10.702Z,49.40
2022-10-14T15:54:39.394Z,49.42
2022-10-14T15:57:11.268Z,49.46
2022-10-14T15:59:42.812Z,49.59
2022-10-14T16:02:18.434Z,49.78
2022-10-14T16:05:07.104Z,49.73
2022-10-14T16:07:36.544Z,49.85
2022-10-14T16:10:07.465Z,50.05
2022-10-14T16:12:35.984Z,49.92
2022-10-14T16:15:32.532Z,49.94
2022-10-14T16:18:02.143Z,50.10
2022-10-14T16:20:31.069Z,50.15
2022-10-14T16:23:00.129Z,50.23
2022-10-14T16:25:44.844Z,50.34
2022-10-14T16:28:13.956Z,50.28
2022-10-14T16:30:48.877Z,50.34
2022-10-14T16:33:24.061Z,50.32
2022-10-14T16:35:57.027Z,50.23
2022-10-14T16:38:26.105Z,50.29
2022-10-14T16:40:59.175Z,50.23
2022-10-14T16:43:28.910Z,50.07
2022-10-14T16:46:00.192Z,50.05
2022-10-14T16:48:29.545Z,50.07
2022-10-14T16:50:57.916Z,49.89
2022-10-14T16:53:45.428Z,49.84
2022-10-14T16:56:32.316Z,49.84
2022-10-14T16:59:01.679Z,49.76
2022-10-14T17:01:31.459Z,49.88
2022-10-14T17:04:00.024Z,50.15
2022-10-14T17:06:28.600Z,50.13
2022-10-14T17:08:57.128Z,50.06
2022-10-14T17:11:29.488Z,50.24
2022-10-14T17:14:00.686Z,50.26
2022-10-14T17:16:29.494Z,50.07
2022-10-14T17:18:59.477Z,50.13
2022-10-14T17:21:29.853Z,50.20
2022-10-14T17:24:03.272Z,50.22
2022-10-14T17:26:33.363Z,50.43
2022-10-14T17:29:01.996Z,50.50
2022-10-14T17:31:30.949Z,50.43
2022-10-14T17:34:00.142Z,50.59
2022-10-14T17:36:31.294Z,50.85
2022-10-14T17:39:00.870Z,51.20
2022-10-14T17:41:30.965Z,50.85
2022-10-14T17:44:01.661Z,50.83
2022-10-14T17:46:32.473Z,51.10
2022-10-14T17:49:04.214Z,51.11
2022-10-14T17:51:33.515Z,51.31
2022-10-14T17:54:04.309Z,51.30
2022-10-14T17:56:35.545Z,51.29
2022-10-14T17:59:06.653Z,51.25
2022-10-14T18:01:37.765Z,51.39
2022-10-14T18:06:54.424Z,51.76
2022-10-14T18:09:23.289Z,52.06
2022-10-14T18:12:09.186Z,51.95
2022-10-14T18:14:40.917Z,52.14
2022-10-14T18:17:12.546Z,52.35
2022-10-14T18:19:42.204Z,52.61
2022-10-14T18:22:11.504Z,52.56
2022-10-14T18:24:40.086Z,52.38
2022-10-14T18:27:08.713Z,52.96
2022-10-14T18:29:38.615Z,53.13
2022-10-14T18:32:07.249Z,53.33
2022-10-14T18:34:35.711Z,53.29
2022-10-14T18:37:04.314Z,53.06
2022-10-14T18:39:32.917Z,52.68
2022-10-14T18:42:01.763Z,52.89
2022-10-14T18:44:30.224Z,52.84
2022-10-14T18:46:58.679Z,52.81
2022-10-14T18:49:27.289Z,52.71
2022-10-14T18:51:55.843Z,52.82
2022-10-14T18:54:25.234Z,53.21
2022-10-14T18:56:55.085Z,53.34
2022-10-14T18:59:24.324Z,53.49
2022-10-14T19:01:54.357Z,53.49
2022-10-14T19:04:27.147Z,53.64
2022-10-14T19:06:55.801Z,53.77
2022-10-14T19:09:29.836Z,54.11
2022-10-14T19:12:00.900Z,54.18
2022-10-14T19:14:29.473Z,54.05
2022-10-14T19:16:58.356Z,54.50
2022-10-14T19:19:26.929Z,54.46
2022-10-14T19:21:56.550Z,54.40
2022-10-14T19:24:25.030Z,54.41
2022-10-14T19:26:54.610Z,54.61
2022-10-14T19:29:26.466Z,54.75
2022-10-14T19:31:55.224Z,54.68
2022-10-14T19:34:26.849Z,54.73
2022-10-14T19:36:55.931Z,54.88
2022-10-14T19:39:24.527Z,54.84
2022-10-14T19:41:53.197Z,54.92
2022-10-14T19:44:21.873Z,54.91
2022-10-14T19:46:50.321Z,54.69
2022-10-14T19:49:18.927Z,54.49
2022-10-14T19:51:47.457Z,54.34
2022-10-14T19:54:16.061Z,54.16
2022-10-14T19:56:44.693Z,54.27
2022-10-14T19:59:14.384Z,54.13
2022-10-14T20:01:42.918Z,54.12
2022-10-14T20:04:12.274Z,54.05
2022-10-14T20:06:40.824Z,54.24
2022-10-14T20:09:11.189Z,54.58
2022-10-14T20:11:39.642Z,54.83
2022-10-14T20:14:08.364Z,54.97
2022-10-14T20:16:36.928Z,55.16
2022-10-14T20:19:06.981Z,55.08
2022-10-14T20:21:35.482Z,55.05
2022-10-14T20:24:04.319Z,55.05
2022-10-14T20:26:33.392Z,54.95
2022-10-14T20:29:02.068Z,54.94
2022-10-14T20:31:30.669Z,54.97
2022-10-14T20:33:59.371Z,55.11
2022-10-14T20:36:27.901Z,54.98
2022-10-14T20:38:56.365Z,54.86
2022-10-14T20:41:26.962Z,54.84
2022-10-14T20:43:56.554Z,54.80
2022-10-14T20:46:25.445Z,54.84
2022-10-14T20:48:57.649Z,54.84
2022-10-14T20:51:26.669Z,54.99
2022-10-14T20:54:01.708Z,55.08
2022-10-14T20:56:34.916Z,55.09
2022-10-14T20:59:08.516Z,55.17
2022-10-14T21:01:37.383Z,55.08
2022-10-14T21:04:07.790Z,55.03
2022-10-14T21:06:38.995Z,55.05
2022-10-14T21:09:07.988Z,55.43
2022-10-14T21:11:36.707Z,55.46
2022-10-14T21:14:05.288Z,55.46
2022-10-14T21:16:36.938Z,55.63
2022-10-14T21:19:08.302Z,55.60
2022-10-14T21:21:42.836Z,55.57
2022-10-14T21:24:15.205Z,55.65
2022-10-14T21:26:45.129Z,55.57
2022-10-14T21:29:13.580Z,55.87
2022-10-14T21:31:42.072Z,55.87
2022-10-14T21:34:11.805Z,55.73
2022-10-14T21:36:40.786Z,55.56
2022-10-14T21:39:14.964Z,55.60
2022-10-14T21:41:43.453Z,55.32
2022-10-14T21:44:16.102Z,55.16
2022-10-14T21:46:44.738Z,54.74
2022-10-14T21:49:13.781Z,54.63
2022-10-14T21:51:42.661Z,54.61
2022-10-14T21:54:12.866Z,54.71
2022-10-14T21:56:41.391Z,54.93
2022-10-14T21:59:10.506Z,55.13
2022-10-14T22:01:39.127Z,55.35
2022-10-14T22:04:07.966Z,55.41
2022-10-14T22:06:36.884Z,55.32
2022-10-14T22:09:07.469Z,55.24
2022-10-14T22:11:39.899Z,55.08
2022-10-14T22:14:12.875Z,55.08
2022-10-14T22:16:41.642Z,55.08
2022-10-14T22:19:10.980Z,55.02
2022-10-14T22:21:41.630Z,54.98
2022-10-14T22:24:10.918Z,54.95
2022-10-14T22:26:40.836Z,54.88
2022-10-14T22:29:14.835Z,54.40
2022-10-14T22:31:43.350Z,54.33
2022-10-14T22:34:14.639Z,54.22
2022-10-14T22:36:44.128Z,54.28
2022-10-14T22:39:15.625Z,54.12
2022-10-14T22:41:44.054Z,54.03
2022-10-14T22:44:12.738Z,53.92
2022-10-14T22:46:41.668Z,54.03
2022-10-14T22:49:10.561Z,53.94
2022-10-14T22:51:40.951Z,53.81
2022-10-14T22:54:10.629Z,53.78
2022-10-14T22:56:39.564Z,53.51
2022-10-14T22:59:11.076Z,53.64
2022-10-14T23:01:42.383Z,53.74
2022-10-14T23:04:11.570Z,53.80
2022-10-14T23:06:40.584Z,53.49
2022-10-14T23:09:09.096Z,53.34
2022-10-14T23:11:37.612Z,53.40
2022-10-14T23:14:07.069Z,53.31
2022-10-14T23:16:36.558Z,53.27
2022-10-14T23:19:05.309Z,53.50
2022-10-14T23:21:36.869Z,53.19
2022-10-14T23:24:09.232Z,53.07
2022-10-14T23:26:38.240Z,53.30
2022-10-14T23:29:10.041Z,53.20
2022-10-14T23:31:40.110Z,53.33
2022-10-14T23:34:12.205Z,53.44
2022-10-14T23:36:41.686Z,53.42
2022-10-14T23:39:10.451Z,53.43
2022-10-14T23:41:39.495Z,53.50
2022-10-14T23:44:07.935Z,53.49
2022-10-14T23:46:36.655Z,53.51
2022-10-14T23:49:25.014Z,53.48
2022-10-14T23:51:55.435Z,53.32
2022-10-14T23:54:24.608Z,53.30
2022-10-14T23:56:53.132Z,53.12
2022-10-14T23:59:21.545Z,53.20
